sensor_id;sensor_type;location;lat;lon;timestamp;P1;durP1;ratioP1;P2;durP2;ratioP2
13040;SDS011;6587;42.728;23.288;2023-01-23T00:02:19;10.13;;;7.20;;
13040;SDS011;6587;42.728;23.288;2023-01-23T00:04:47;12.17;;;7.17;;
13040;SDS011;6587;42.728;23.288;2023-01-23T00:07:14;9.73;;;6.60;;
13040;SDS011;6587;42.728;23.288;2023-01-23T00:09:43;10.63;;;7.27;;
13040;SDS011;6587;42.728;23.288;2023-01-23T00:12:10;11.47;;;7.03;;
13040;SDS011;6587;42.728;23.288;2023-01-23T00:14:37;14.07;;;7.50;;
13040;SDS011;6587;42.728;23.288;2023-01-23T00:17:03;10.73;;;6.87;;
13040;SDS011;6587;42.728;23.288;2023-01-23T00:19:30;12.23;;;7.17;;
13040;SDS011;6587;42.728;23.288;2023-01-23T00:21:59;13.10;;;8.03;;
13040;SDS011;6587;42.728;23.288;2023-01-23T00:24:28;15.43;;;8.93;;
13040;SDS011;6587;42.728;23.288;2023-01-23T00:26:56;11.87;;;8.67;;
13040;SDS011;6587;42.728;23.288;2023-01-23T00:29:23;12.10;;;7.80;;
13040;SDS011;6587;42.728;23.288;2023-01-23T00:31:50;13.03;;;7.50;;
13040;SDS011;6587;42.728;23.288;2023-01-23T00:34:17;12.97;;;7.60;;
13040;SDS011;6587;42.728;23.288;2023-01-23T00:36:46;11.50;;;7.63;;
13040;SDS011;6587;42.728;23.288;2023-01-23T00:39:15;14.33;;;8.40;;
13040;SDS011;6587;42.728;23.288;2023-01-23T00:41:43;12.33;;;7.97;;
13040;SDS011;6587;42.728;23.288;2023-01-23T00:44:12;13.70;;;8.30;;
13040;SDS011;6587;42.728;23.288;2023-01-23T00:46:40;11.40;;;8.13;;
13040;SDS011;6587;42.728;23.288;2023-01-23T00:49:07;11.70;;;7.27;;
13040;SDS011;6587;42.728;23.288;2023-01-23T00:51:34;11.93;;;6.70;;
13040;SDS011;6587;42.728;23.288;2023-01-23T00:54:01;9.40;;;6.97;;
13040;SDS011;6587;42.728;23.288;2023-01-23T00:56:28;9.83;;;6.93;;
13040;SDS011;6587;42.728;23.288;2023-01-23T00:58:55;8.83;;;6.20;;
13040;SDS011;6587;42.728;23.288;2023-01-23T01:01:24;9.07;;;6.30;;
13040;SDS011;6587;42.728;23.288;2023-01-23T01:03:52;10.87;;;6.53;;
13040;SDS011;6587;42.728;23.288;2023-01-23T01:06:19;11.70;;;6.97;;
13040;SDS011;6587;42.728;23.288;2023-01-23T01:08:46;9.10;;;6.37;;
13040;SDS011;6587;42.728;23.288;2023-01-23T01:11:14;11.90;;;7.50;;
13040;SDS011;6587;42.728;23.288;2023-01-23T01:13:41;11.57;;;7.43;;
13040;SDS011;6587;42.728;23.288;2023-01-23T01:16:09;9.83;;;7.30;;
13040;SDS011;6587;42.728;23.288;2023-01-23T01:18:37;12.23;;;7.97;;
13040;SDS011;6587;42.728;23.288;2023-01-23T01:21:06;13.27;;;7.87;;
13040;SDS011;6587;42.728;23.288;2023-01-23T01:23:33;10.97;;;7.87;;
13040;SDS011;6587;42.728;23.288;2023-01-23T01:26:01;15.03;;;7.80;;
13040;SDS011;6587;42.728;23.288;2023-01-23T01:28:31;10.63;;;7.10;;
13040;SDS011;6587;42.728;23.288;2023-01-23T01:31:02;10.50;;;6.90;;
13040;SDS011;6587;42.728;23.288;2023-01-23T01:33:31;11.43;;;6.90;;
13040;SDS011;6587;42.728;23.288;2023-01-23T01:36:00;9.90;;;6.37;;
13040;SDS011;6587;42.728;23.288;2023-01-23T01:38:27;12.47;;;7.63;;
13040;SDS011;6587;42.728;23.288;2023-01-23T01:40:56;9.80;;;6.30;;
13040;SDS011;6587;42.728;23.288;2023-01-23T01:43:24;10.77;;;6.20;;
13040;SDS011;6587;42.728;23.288;2023-01-23T01:46:04;9.37;;;5.93;;
13040;SDS011;6587;42.728;23.288;2023-01-23T01:48:37;11.77;;;6.57;;
13040;SDS011;6587;42.728;23.288;2023-01-23T01:51:10;11.13;;;6.40;;
13040;SDS011;6587;42.728;23.288;2023-01-23T01:53:42;10.43;;;6.37;;
13040;SDS011;6587;42.728;23.288;2023-01-23T01:56:12;10.87;;;6.30;;
13040;SDS011;6587;42.728;23.288;2023-01-23T01:58:40;11.87;;;6.33;;
13040;SDS011;6587;42.728;23.288;2023-01-23T02:01:10;10.60;;;5.93;;
13040;SDS011;6587;42.728;23.288;2023-01-23T02:03:37;9.00;;;6.00;;
13040;SDS011;6587;42.728;23.288;2023-01-23T02:06:05;12.13;;;6.10;;
13040;SDS011;6587;42.728;23.288;2023-01-23T02:08:34;8.07;;;5.77;;
13040;SDS011;6587;42.728;23.288;2023-01-23T02:11:08;10.90;;;5.77;;
13040;SDS011;6587;42.728;23.288;2023-01-23T02:13:35;9.70;;;5.93;;
13040;SDS011;6587;42.728;23.288;2023-01-23T02:16:04;9.53;;;6.33;;
13040;SDS011;6587;42.728;23.288;2023-01-23T02:18:33;11.10;;;5.73;;
13040;SDS011;6587;42.728;23.288;2023-01-23T02:21:04;9.47;;;5.70;;
13040;SDS011;6587;42.728;23.288;2023-01-23T02:23:36;9.37;;;6.17;;
13040;SDS011;6587;42.728;23.288;2023-01-23T02:26:19;10.43;;;6.13;;
13040;SDS011;6587;42.728;23.288;2023-01-23T02:28:52;8.43;;;5.30;;
13040;SDS011;6587;42.728;23.288;2023-01-23T02:31:22;8.53;;;5.10;;
13040;SDS011;6587;42.728;23.288;2023-01-23T02:33:51;8.23;;;5.33;;
13040;SDS011;6587;42.728;23.288;2023-01-23T02:36:20;9.57;;;5.33;;
13040;SDS011;6587;42.728;23.288;2023-01-23T02:38:51;8.03;;;5.33;;
13040;SDS011;6587;42.728;23.288;2023-01-23T02:41:24;8.83;;;4.97;;
13040;SDS011;6587;42.728;23.288;2023-01-23T02:43:55;9.67;;;5.10;;
13040;SDS011;6587;42.728;23.288;2023-01-23T02:46:24;9.87;;;5.23;;
13040;SDS011;6587;42.728;23.288;2023-01-23T02:48:52;7.80;;;5.60;;
13040;SDS011;6587;42.728;23.288;2023-01-23T02:51:19;7.37;;;4.57;;
13040;SDS011;6587;42.728;23.288;2023-01-23T02:53:47;9.10;;;4.90;;
13040;SDS011;6587;42.728;23.288;2023-01-23T02:56:16;7.60;;;5.13;;
13040;SDS011;6587;42.728;23.288;2023-01-23T02:58:45;8.03;;;4.60;;
13040;SDS011;6587;42.728;23.288;2023-01-23T03:01:31;9.13;;;5.23;;
13040;SDS011;6587;42.728;23.288;2023-01-23T03:04:01;8.80;;;5.17;;
13040;SDS011;6587;42.728;23.288;2023-01-23T03:06:30;8.07;;;5.13;;
13040;SDS011;6587;42.728;23.288;2023-01-23T03:09:01;9.20;;;4.97;;
13040;SDS011;6587;42.728;23.288;2023-01-23T03:11:32;9.50;;;5.30;;
13040;SDS011;6587;42.728;23.288;2023-01-23T03:14:03;6.73;;;5.00;;
13040;SDS011;6587;42.728;23.288;2023-01-23T03:16:31;8.10;;;5.20;;
13040;SDS011;6587;42.728;23.288;2023-01-23T03:18:59;8.77;;;5.60;;
13040;SDS011;6587;42.728;23.288;2023-01-23T03:21:30;7.40;;;5.77;;
13040;SDS011;6587;42.728;23.288;2023-01-23T03:23:58;7.73;;;4.93;;
13040;SDS011;6587;42.728;23.288;2023-01-23T03:26:25;8.23;;;4.90;;
13040;SDS011;6587;42.728;23.288;2023-01-23T03:28:52;7.27;;;4.53;;
13040;SDS011;6587;42.728;23.288;2023-01-23T03:31:38;6.43;;;4.60;;
13040;SDS011;6587;42.728;23.288;2023-01-23T03:34:05;6.13;;;4.43;;
13040;SDS011;6587;42.728;23.288;2023-01-23T03:36:33;6.47;;;3.83;;
13040;SDS011;6587;42.728;23.288;2023-01-23T03:39:02;7.90;;;4.67;;
13040;SDS011;6587;42.728;23.288;2023-01-23T03:41:48;5.50;;;4.27;;
13040;SDS011;6587;42.728;23.288;2023-01-23T03:44:18;6.63;;;4.50;;
13040;SDS011;6587;42.728;23.288;2023-01-23T03:46:48;6.40;;;4.40;;
13040;SDS011;6587;42.728;23.288;2023-01-23T03:49:17;7.43;;;4.50;;
13040;SDS011;6587;42.728;23.288;2023-01-23T03:51:49;9.17;;;4.53;;
13040;SDS011;6587;42.728;23.288;2023-01-23T03:54:16;7.17;;;4.80;;
13040;SDS011;6587;42.728;23.288;2023-01-23T03:56:43;6.53;;;4.03;;
13040;SDS011;6587;42.728;23.288;2023-01-23T03:59:28;6.23;;;3.63;;
13040;SDS011;6587;42.728;23.288;2023-01-23T04:01:57;7.87;;;4.27;;
13040;SDS011;6587;42.728;23.288;2023-01-23T04:04:25;8.40;;;4.03;;
13040;SDS011;6587;42.728;23.288;2023-01-23T04:06:53;6.47;;;4.00;;
13040;SDS011;6587;42.728;23.288;2023-01-23T04:09:20;5.80;;;3.70;;
13040;SDS011;6587;42.728;23.288;2023-01-23T04:11:52;6.77;;;4.20;;
13040;SDS011;6587;42.728;23.288;2023-01-23T04:14:19;8.47;;;4.63;;
13040;SDS011;6587;42.728;23.288;2023-01-23T04:16:46;5.30;;;3.70;;
13040;SDS011;6587;42.728;23.288;2023-01-23T04:19:15;8.40;;;4.40;;
13040;SDS011;6587;42.728;23.288;2023-01-23T04:21:44;8.30;;;4.33;;
13040;SDS011;6587;42.728;23.288;2023-01-23T04:24:11;7.50;;;4.50;;
13040;SDS011;6587;42.728;23.288;2023-01-23T04:26:38;7.13;;;4.10;;
13040;SDS011;6587;42.728;23.288;2023-01-23T04:29:05;7.10;;;4.17;;
13040;SDS011;6587;42.728;23.288;2023-01-23T04:31:32;6.93;;;4.00;;
13040;SDS011;6587;42.728;23.288;2023-01-23T04:34:01;7.17;;;3.90;;
13040;SDS011;6587;42.728;23.288;2023-01-23T04:36:30;5.97;;;3.30;;
13040;SDS011;6587;42.728;23.288;2023-01-23T04:38:57;5.47;;;3.70;;
13040;SDS011;6587;42.728;23.288;2023-01-23T04:41:26;5.37;;;3.00;;
13040;SDS011;6587;42.728;23.288;2023-01-23T04:44:00;5.30;;;3.37;;
13040;SDS011;6587;42.728;23.288;2023-01-23T04:46:52;5.37;;;3.30;;
13040;SDS011;6587;42.728;23.288;2023-01-23T04:49:21;6.73;;;2.90;;
13040;SDS011;6587;42.728;23.288;2023-01-23T04:51:50;4.50;;;2.87;;
13040;SDS011;6587;42.728;23.288;2023-01-23T04:54:22;4.80;;;2.50;;
13040;SDS011;6587;42.728;23.288;2023-01-23T04:56:50;4.53;;;3.10;;
13040;SDS011;6587;42.728;23.288;2023-01-23T04:59:19;5.93;;;3.00;;
13040;SDS011;6587;42.728;23.288;2023-01-23T05:01:46;4.93;;;3.43;;
13040;SDS011;6587;42.728;23.288;2023-01-23T05:04:13;5.97;;;4.00;;
13040;SDS011;6587;42.728;23.288;2023-01-23T05:06:40;6.63;;;3.30;;
13040;SDS011;6587;42.728;23.288;2023-01-23T05:09:09;7.60;;;3.90;;
13040;SDS011;6587;42.728;23.288;2023-01-23T05:11:43;7.70;;;3.97;;
13040;SDS011;6587;42.728;23.288;2023-01-23T05:14:11;5.83;;;3.63;;
13040;SDS011;6587;42.728;23.288;2023-01-23T05:16:40;10.00;;;3.73;;
13040;SDS011;6587;42.728;23.288;2023-01-23T05:19:17;7.30;;;3.93;;
13040;SDS011;6587;42.728;23.288;2023-01-23T05:21:45;12.70;;;4.33;;
13040;SDS011;6587;42.728;23.288;2023-01-23T05:24:17;7.00;;;3.67;;
13040;SDS011;6587;42.728;23.288;2023-01-23T05:26:44;5.30;;;3.80;;
13040;SDS011;6587;42.728;23.288;2023-01-23T05:29:12;5.47;;;3.60;;
13040;SDS011;6587;42.728;23.288;2023-01-23T05:31:47;5.63;;;2.77;;
13040;SDS011;6587;42.728;23.288;2023-01-23T05:34:37;5.30;;;3.50;;
13040;SDS011;6587;42.728;23.288;2023-01-23T05:37:23;5.80;;;3.33;;
13040;SDS011;6587;42.728;23.288;2023-01-23T05:39:55;7.47;;;4.43;;
13040;SDS011;6587;42.728;23.288;2023-01-23T05:42:23;4.90;;;3.20;;
13040;SDS011;6587;42.728;23.288;2023-01-23T05:44:50;5.67;;;3.27;;
13040;SDS011;6587;42.728;23.288;2023-01-23T05:47:33;3.07;;;2.47;;
13040;SDS011;6587;42.728;23.288;2023-01-23T05:50:01;6.47;;;3.30;;
13040;SDS011;6587;42.728;23.288;2023-01-23T05:52:31;4.40;;;3.03;;
13040;SDS011;6587;42.728;23.288;2023-01-23T05:55:00;4.93;;;3.10;;
13040;SDS011;6587;42.728;23.288;2023-01-23T05:57:27;4.70;;;3.13;;
13040;SDS011;6587;42.728;23.288;2023-01-23T05:59:54;4.57;;;3.30;;
13040;SDS011;6587;42.728;23.288;2023-01-23T06:02:39;3.80;;;2.70;;
13040;SDS011;6587;42.728;23.288;2023-01-23T06:05:06;5.27;;;2.90;;
13040;SDS011;6587;42.728;23.288;2023-01-23T06:07:54;5.67;;;3.57;;
13040;SDS011;6587;42.728;23.288;2023-01-23T06:10:23;6.40;;;3.30;;
13040;SDS011;6587;42.728;23.288;2023-01-23T06:12:50;4.13;;;2.97;;
13040;SDS011;6587;42.728;23.288;2023-01-23T06:15:17;5.77;;;3.40;;
13040;SDS011;6587;42.728;23.288;2023-01-23T06:17:45;5.90;;;3.10;;
13040;SDS011;6587;42.728;23.288;2023-01-23T06:20:12;6.17;;;3.17;;
13040;SDS011;6587;42.728;23.288;2023-01-23T06:22:42;7.50;;;3.50;;
13040;SDS011;6587;42.728;23.288;2023-01-23T06:25:11;5.23;;;3.23;;
13040;SDS011;6587;42.728;23.288;2023-01-23T06:27:39;6.17;;;3.43;;
13040;SDS011;6587;42.728;23.288;2023-01-23T06:30:08;7.20;;;3.70;;
13040;SDS011;6587;42.728;23.288;2023-01-23T06:32:39;6.67;;;3.23;;
13040;SDS011;6587;42.728;23.288;2023-01-23T06:35:08;7.03;;;3.90;;
13040;SDS011;6587;42.728;23.288;2023-01-23T06:37:40;8.30;;;4.03;;
13040;SDS011;6587;42.728;23.288;2023-01-23T06:40:10;11.00;;;4.03;;
13040;SDS011;6587;42.728;23.288;2023-01-23T06:42:41;10.00;;;4.20;;
13040;SDS011;6587;42.728;23.288;2023-01-23T06:45:09;8.90;;;4.47;;
13040;SDS011;6587;42.728;23.288;2023-01-23T06:47:37;8.93;;;5.90;;
13040;SDS011;6587;42.728;23.288;2023-01-23T06:50:04;11.83;;;6.17;;
13040;SDS011;6587;42.728;23.288;2023-01-23T06:52:35;11.60;;;6.03;;
13040;SDS011;6587;42.728;23.288;2023-01-23T06:55:02;11.23;;;5.80;;
13040;SDS011;6587;42.728;23.288;2023-01-23T06:57:32;10.33;;;6.13;;
13040;SDS011;6587;42.728;23.288;2023-01-23T07:00:02;11.37;;;6.60;;
13040;SDS011;6587;42.728;23.288;2023-01-23T07:02:32;11.53;;;6.97;;
13040;SDS011;6587;42.728;23.288;2023-01-23T07:04:59;13.03;;;6.40;;
13040;SDS011;6587;42.728;23.288;2023-01-23T07:07:26;12.27;;;6.27;;
13040;SDS011;6587;42.728;23.288;2023-01-23T07:09:53;9.80;;;5.10;;
13040;SDS011;6587;42.728;23.288;2023-01-23T07:12:23;10.20;;;4.83;;
13040;SDS011;6587;42.728;23.288;2023-01-23T07:14:50;8.90;;;4.70;;
13040;SDS011;6587;42.728;23.288;2023-01-23T07:17:23;9.40;;;5.70;;
13040;SDS011;6587;42.728;23.288;2023-01-23T07:19:50;9.63;;;4.70;;
13040;SDS011;6587;42.728;23.288;2023-01-23T07:22:18;9.17;;;4.93;;
13040;SDS011;6587;42.728;23.288;2023-01-23T07:24:46;9.80;;;5.40;;
13040;SDS011;6587;42.728;23.288;2023-01-23T07:27:13;9.90;;;5.80;;
13040;SDS011;6587;42.728;23.288;2023-01-23T07:29:41;12.70;;;6.50;;
13040;SDS011;6587;42.728;23.288;2023-01-23T07:32:08;12.47;;;7.33;;
13040;SDS011;6587;42.728;23.288;2023-01-23T07:34:36;15.40;;;7.83;;
13040;SDS011;6587;42.728;23.288;2023-01-23T07:37:03;13.53;;;7.83;;
13040;SDS011;6587;42.728;23.288;2023-01-23T07:39:30;11.57;;;7.27;;
13040;SDS011;6587;42.728;23.288;2023-01-23T07:41:57;16.00;;;8.27;;
13040;SDS011;6587;42.728;23.288;2023-01-23T07:44:26;16.20;;;8.13;;
13040;SDS011;6587;42.728;23.288;2023-01-23T07:46:54;18.00;;;8.63;;
13040;SDS011;6587;42.728;23.288;2023-01-23T07:49:22;17.90;;;8.30;;
13040;SDS011;6587;42.728;23.288;2023-01-23T07:51:50;15.70;;;7.90;;
13040;SDS011;6587;42.728;23.288;2023-01-23T07:54:17;15.57;;;8.10;;
13040;SDS011;6587;42.728;23.288;2023-01-23T07:56:44;14.17;;;8.83;;
13040;SDS011;6587;42.728;23.288;2023-01-23T07:59:11;13.70;;;7.97;;
13040;SDS011;6587;42.728;23.288;2023-01-23T08:01:38;12.40;;;7.37;;
13040;SDS011;6587;42.728;23.288;2023-01-23T08:04:04;13.77;;;7.90;;
13040;SDS011;6587;42.728;23.288;2023-01-23T08:06:31;14.93;;;8.33;;
13040;SDS011;6587;42.728;23.288;2023-01-23T08:09:00;15.83;;;7.43;;
13040;SDS011;6587;42.728;23.288;2023-01-23T08:11:27;13.20;;;7.53;;
13040;SDS011;6587;42.728;23.288;2023-01-23T08:13:53;13.37;;;7.67;;
13040;SDS011;6587;42.728;23.288;2023-01-23T08:16:20;10.63;;;7.10;;
13040;SDS011;6587;42.728;23.288;2023-01-23T08:18:48;13.27;;;7.47;;
13040;SDS011;6587;42.728;23.288;2023-01-23T08:21:15;11.93;;;7.77;;
13040;SDS011;6587;42.728;23.288;2023-01-23T08:23:42;13.60;;;7.77;;
13040;SDS011;6587;42.728;23.288;2023-01-23T08:26:12;11.83;;;7.47;;
13040;SDS011;6587;42.728;23.288;2023-01-23T08:28:40;15.83;;;7.47;;
13040;SDS011;6587;42.728;23.288;2023-01-23T08:31:08;11.90;;;6.67;;
13040;SDS011;6587;42.728;23.288;2023-01-23T08:33:37;12.13;;;7.10;;
13040;SDS011;6587;42.728;23.288;2023-01-23T08:36:05;11.90;;;6.77;;
13040;SDS011;6587;42.728;23.288;2023-01-23T08:38:33;12.47;;;6.40;;
13040;SDS011;6587;42.728;23.288;2023-01-23T08:41:01;13.43;;;6.60;;
13040;SDS011;6587;42.728;23.288;2023-01-23T08:43:30;11.60;;;6.30;;
13040;SDS011;6587;42.728;23.288;2023-01-23T08:45:58;11.33;;;5.87;;
13040;SDS011;6587;42.728;23.288;2023-01-23T08:48:25;12.17;;;6.10;;
13040;SDS011;6587;42.728;23.288;2023-01-23T08:50:57;9.90;;;5.93;;
13040;SDS011;6587;42.728;23.288;2023-01-23T08:53:25;7.20;;;4.50;;
13040;SDS011;6587;42.728;23.288;2023-01-23T08:55:52;11.87;;;5.60;;
13040;SDS011;6587;42.728;23.288;2023-01-23T08:58:19;9.57;;;5.20;;
13040;SDS011;6587;42.728;23.288;2023-01-23T09:00:47;12.37;;;6.23;;
13040;SDS011;6587;42.728;23.288;2023-01-23T09:03:14;8.43;;;5.33;;
13040;SDS011;6587;42.728;23.288;2023-01-23T09:05:41;13.57;;;6.40;;
13040;SDS011;6587;42.728;23.288;2023-01-23T09:08:08;9.03;;;5.23;;
13040;SDS011;6587;42.728;23.288;2023-01-23T09:10:35;7.70;;;4.87;;
13040;SDS011;6587;42.728;23.288;2023-01-23T09:13:02;7.97;;;5.00;;
13040;SDS011;6587;42.728;23.288;2023-01-23T09:15:29;6.80;;;4.37;;
13040;SDS011;6587;42.728;23.288;2023-01-23T09:17:57;7.57;;;4.60;;
13040;SDS011;6587;42.728;23.288;2023-01-23T09:20:24;5.60;;;3.87;;
13040;SDS011;6587;42.728;23.288;2023-01-23T09:22:53;8.03;;;4.97;;
13040;SDS011;6587;42.728;23.288;2023-01-23T09:25:20;9.33;;;4.80;;
13040;SDS011;6587;42.728;23.288;2023-01-23T09:27:47;8.27;;;5.10;;
13040;SDS011;6587;42.728;23.288;2023-01-23T09:30:14;6.83;;;4.40;;
13040;SDS011;6587;42.728;23.288;2023-01-23T09:32:41;11.27;;;4.40;;
13040;SDS011;6587;42.728;23.288;2023-01-23T09:35:09;9.60;;;5.13;;
13040;SDS011;6587;42.728;23.288;2023-01-23T09:37:36;8.20;;;5.17;;
13040;SDS011;6587;42.728;23.288;2023-01-23T09:40:21;9.43;;;4.87;;
13040;SDS011;6587;42.728;23.288;2023-01-23T09:42:50;11.47;;;5.37;;
13040;SDS011;6587;42.728;23.288;2023-01-23T09:45:20;7.50;;;4.57;;
13040;SDS011;6587;42.728;23.288;2023-01-23T09:47:50;8.13;;;5.47;;
13040;SDS011;6587;42.728;23.288;2023-01-23T09:50:23;8.07;;;4.90;;
13040;SDS011;6587;42.728;23.288;2023-01-23T09:52:54;10.40;;;5.33;;
13040;SDS011;6587;42.728;23.288;2023-01-23T09:55:29;10.97;;;5.50;;
13040;SDS011;6587;42.728;23.288;2023-01-23T09:58:05;9.27;;;5.43;;
13040;SDS011;6587;42.728;23.288;2023-01-23T10:00:41;10.00;;;5.70;;
13040;SDS011;6587;42.728;23.288;2023-01-23T10:03:10;7.20;;;4.83;;
13040;SDS011;6587;42.728;23.288;2023-01-23T10:05:42;10.80;;;6.30;;
13040;SDS011;6587;42.728;23.288;2023-01-23T10:08:20;9.77;;;5.67;;
13040;SDS011;6587;42.728;23.288;2023-01-23T10:10:58;9.20;;;5.50;;
13040;SDS011;6587;42.728;23.288;2023-01-23T10:13:38;8.20;;;5.20;;
13040;SDS011;6587;42.728;23.288;2023-01-23T10:19:16;11.23;;;5.97;;
13040;SDS011;6587;42.728;23.288;2023-01-23T10:21:54;8.27;;;5.57;;
13040;SDS011;6587;42.728;23.288;2023-01-23T10:24:31;9.03;;;5.73;;
13040;SDS011;6587;42.728;23.288;2023-01-23T10:27:14;8.53;;;5.87;;
13040;SDS011;6587;42.728;23.288;2023-01-23T10:29:44;13.97;;;6.57;;
13040;SDS011;6587;42.728;23.288;2023-01-23T10:32:23;9.60;;;5.83;;
13040;SDS011;6587;42.728;23.288;2023-01-23T10:34:53;12.37;;;6.33;;
13040;SDS011;6587;42.728;23.288;2023-01-23T10:37:34;9.47;;;5.93;;
13040;SDS011;6587;42.728;23.288;2023-01-23T10:40:08;13.20;;;6.17;;
13040;SDS011;6587;42.728;23.288;2023-01-23T10:42:39;8.27;;;5.47;;
13040;SDS011;6587;42.728;23.288;2023-01-23T10:45:09;12.37;;;6.00;;
13040;SDS011;6587;42.728;23.288;2023-01-23T10:47:43;10.53;;;6.43;;
13040;SDS011;6587;42.728;23.288;2023-01-23T10:50:11;9.60;;;6.10;;
13040;SDS011;6587;42.728;23.288;2023-01-23T10:52:41;9.47;;;6.20;;
13040;SDS011;6587;42.728;23.288;2023-01-23T10:55:24;10.43;;;5.87;;
13040;SDS011;6587;42.728;23.288;2023-01-23T10:57:54;8.47;;;6.37;;
13040;SDS011;6587;42.728;23.288;2023-01-23T11:00:28;12.63;;;6.80;;
13040;SDS011;6587;42.728;23.288;2023-01-23T11:05:53;10.67;;;6.87;;
13040;SDS011;6587;42.728;23.288;2023-01-23T11:08:23;9.57;;;6.37;;
13040;SDS011;6587;42.728;23.288;2023-01-23T11:10:51;10.97;;;6.40;;
13040;SDS011;6587;42.728;23.288;2023-01-23T11:13:25;9.93;;;6.70;;
13040;SDS011;6587;42.728;23.288;2023-01-23T11:15:53;11.17;;;6.67;;
13040;SDS011;6587;42.728;23.288;2023-01-23T11:18:24;9.97;;;6.13;;
13040;SDS011;6587;42.728;23.288;2023-01-23T11:20:56;9.90;;;6.03;;
13040;SDS011;6587;42.728;23.288;2023-01-23T11:23:25;10.27;;;5.83;;
13040;SDS011;6587;42.728;23.288;2023-01-23T11:25:53;8.77;;;5.80;;
13040;SDS011;6587;42.728;23.288;2023-01-23T11:28:21;9.60;;;6.17;;
13040;SDS011;6587;42.728;23.288;2023-01-23T11:30:53;8.23;;;6.07;;
13040;SDS011;6587;42.728;23.288;2023-01-23T11:33:38;10.17;;;6.37;;
13040;SDS011;6587;42.728;23.288;2023-01-23T11:36:13;10.17;;;6.37;;
13040;SDS011;6587;42.728;23.288;2023-01-23T11:39:01;11.87;;;6.30;;
13040;SDS011;6587;42.728;23.288;2023-01-23T11:41:32;8.10;;;5.63;;
13040;SDS011;6587;42.728;23.288;2023-01-23T11:44:02;10.07;;;6.20;;
13040;SDS011;6587;42.728;23.288;2023-01-23T11:46:40;10.97;;;6.47;;
13040;SDS011;6587;42.728;23.288;2023-01-23T11:49:29;7.57;;;5.40;;
13040;SDS011;6587;42.728;23.288;2023-01-23T11:52:17;11.77;;;6.60;;
13040;SDS011;6587;42.728;23.288;2023-01-23T11:55:00;10.03;;;6.60;;
13040;SDS011;6587;42.728;23.288;2023-01-23T11:57:42;8.97;;;5.97;;
13040;SDS011;6587;42.728;23.288;2023-01-23T12:00:23;10.60;;;7.10;;
13040;SDS011;6587;42.728;23.288;2023-01-23T12:09:04;10.03;;;6.40;;
13040;SDS011;6587;42.728;23.288;2023-01-23T12:11:39;9.53;;;5.93;;
13040;SDS011;6587;42.728;23.288;2023-01-23T12:14:19;9.60;;;6.00;;
13040;SDS011;6587;42.728;23.288;2023-01-23T12:16:56;13.73;;;7.00;;
13040;SDS011;6587;42.728;23.288;2023-01-23T12:19:40;10.33;;;6.87;;
13040;SDS011;6587;42.728;23.288;2023-01-23T12:22:41;11.10;;;6.57;;
13040;SDS011;6587;42.728;23.288;2023-01-23T12:25:20;10.03;;;6.43;;
13040;SDS011;6587;42.728;23.288;2023-01-23T12:27:55;13.20;;;7.13;;
13040;SDS011;6587;42.728;23.288;2023-01-23T12:30:41;10.50;;;6.57;;
13040;SDS011;6587;42.728;23.288;2023-01-23T12:33:28;11.07;;;7.10;;
13040;SDS011;6587;42.728;23.288;2023-01-23T12:36:12;9.97;;;7.00;;
13040;SDS011;6587;42.728;23.288;2023-01-23T12:38:55;10.23;;;6.20;;
13040;SDS011;6587;42.728;23.288;2023-01-23T12:41:33;10.53;;;7.23;;
13040;SDS011;6587;42.728;23.288;2023-01-23T12:44:09;11.00;;;7.27;;
13040;SDS011;6587;42.728;23.288;2023-01-23T12:46:40;11.13;;;7.07;;
13040;SDS011;6587;42.728;23.288;2023-01-23T12:49:16;11.27;;;7.03;;
13040;SDS011;6587;42.728;23.288;2023-01-23T12:51:49;9.93;;;6.97;;
13040;SDS011;6587;42.728;23.288;2023-01-23T12:54:30;12.20;;;7.03;;
13040;SDS011;6587;42.728;23.288;2023-01-23T12:57:02;12.30;;;7.87;;
13040;SDS011;6587;42.728;23.288;2023-01-23T12:59:35;13.47;;;7.17;;
13040;SDS011;6587;42.728;23.288;2023-01-23T13:02:13;11.27;;;7.60;;
13040;SDS011;6587;42.728;23.288;2023-01-23T13:04:52;11.17;;;6.90;;
13040;SDS011;6587;42.728;23.288;2023-01-23T13:07:30;15.83;;;7.87;;
13040;SDS011;6587;42.728;23.288;2023-01-23T13:10:23;12.50;;;7.47;;
13040;SDS011;6587;42.728;23.288;2023-01-23T13:13:24;13.97;;;8.10;;
13040;SDS011;6587;42.728;23.288;2023-01-23T13:16:08;14.53;;;8.53;;
13040;SDS011;6587;42.728;23.288;2023-01-23T13:18:36;14.80;;;8.97;;
13040;SDS011;6587;42.728;23.288;2023-01-23T13:21:21;14.30;;;7.60;;
13040;SDS011;6587;42.728;23.288;2023-01-23T13:24:12;13.40;;;8.10;;
13040;SDS011;6587;42.728;23.288;2023-01-23T13:27:33;14.20;;;8.50;;
13040;SDS011;6587;42.728;23.288;2023-01-23T13:30:04;14.20;;;7.97;;
13040;SDS011;6587;42.728;23.288;2023-01-23T13:36:23;16.90;;;9.13;;
13040;SDS011;6587;42.728;23.288;2023-01-23T13:39:02;18.83;;;10.67;;
13040;SDS011;6587;42.728;23.288;2023-01-23T13:41:50;18.57;;;10.13;;
13040;SDS011;6587;42.728;23.288;2023-01-23T13:47:38;18.77;;;10.93;;
13040;SDS011;6587;42.728;23.288;2023-01-23T13:50:33;17.03;;;10.13;;
13040;SDS011;6587;42.728;23.288;2023-01-23T13:53:12;26.13;;;12.50;;
13040;SDS011;6587;42.728;23.288;2023-01-23T13:56:00;21.80;;;11.90;;
13040;SDS011;6587;42.728;23.288;2023-01-23T13:58:45;22.00;;;11.77;;
13040;SDS011;6587;42.728;23.288;2023-01-23T14:01:15;19.20;;;11.70;;
13040;SDS011;6587;42.728;23.288;2023-01-23T14:04:04;20.33;;;12.10;;
13040;SDS011;6587;42.728;23.288;2023-01-23T14:06:53;20.07;;;11.07;;
13040;SDS011;6587;42.728;23.288;2023-01-23T14:09:22;18.70;;;10.50;;
13040;SDS011;6587;42.728;23.288;2023-01-23T14:11:55;17.70;;;10.50;;
13040;SDS011;6587;42.728;23.288;2023-01-23T14:14:22;23.07;;;11.20;;
13040;SDS011;6587;42.728;23.288;2023-01-23T14:17:07;21.37;;;10.80;;
13040;SDS011;6587;42.728;23.288;2023-01-23T14:19:37;19.60;;;9.43;;
13040;SDS011;6587;42.728;23.288;2023-01-23T14:22:17;18.70;;;10.40;;
13040;SDS011;6587;42.728;23.288;2023-01-23T14:24:46;19.97;;;10.20;;
13040;SDS011;6587;42.728;23.288;2023-01-23T14:27:18;17.20;;;10.27;;
13040;SDS011;6587;42.728;23.288;2023-01-23T14:29:55;20.50;;;11.47;;
13040;SDS011;6587;42.728;23.288;2023-01-23T14:32:23;18.00;;;9.73;;
13040;SDS011;6587;42.728;23.288;2023-01-23T14:34:53;20.40;;;11.20;;
13040;SDS011;6587;42.728;23.288;2023-01-23T14:37:20;20.73;;;10.33;;
13040;SDS011;6587;42.728;23.288;2023-01-23T14:39:49;19.77;;;11.33;;
13040;SDS011;6587;42.728;23.288;2023-01-23T14:42:19;17.80;;;10.43;;
13040;SDS011;6587;42.728;23.288;2023-01-23T14:44:50;18.67;;;10.27;;
13040;SDS011;6587;42.728;23.288;2023-01-23T14:47:21;18.90;;;10.37;;
13040;SDS011;6587;42.728;23.288;2023-01-23T14:49:51;18.03;;;10.77;;
13040;SDS011;6587;42.728;23.288;2023-01-23T14:52:20;20.20;;;10.63;;
13040;SDS011;6587;42.728;23.288;2023-01-23T14:54:50;19.07;;;9.20;;
13040;SDS011;6587;42.728;23.288;2023-01-23T14:57:17;18.97;;;10.47;;
13040;SDS011;6587;42.728;23.288;2023-01-23T14:59:46;16.87;;;9.97;;
13040;SDS011;6587;42.728;23.288;2023-01-23T15:02:24;21.70;;;10.37;;
13040;SDS011;6587;42.728;23.288;2023-01-23T15:05:07;17.33;;;8.80;;
13040;SDS011;6587;42.728;23.288;2023-01-23T15:07:41;19.03;;;10.10;;
13040;SDS011;6587;42.728;23.288;2023-01-23T15:10:14;19.77;;;11.23;;
13040;SDS011;6587;42.728;23.288;2023-01-23T15:12:46;21.87;;;12.40;;
13040;SDS011;6587;42.728;23.288;2023-01-23T15:15:17;19.50;;;10.27;;
13040;SDS011;6587;42.728;23.288;2023-01-23T15:17:46;19.67;;;11.27;;
13040;SDS011;6587;42.728;23.288;2023-01-23T15:20:26;22.67;;;11.63;;
13040;SDS011;6587;42.728;23.288;2023-01-23T15:23:12;18.67;;;10.63;;
13040;SDS011;6587;42.728;23.288;2023-01-23T15:25:53;22.40;;;11.73;;